createdAt,value
2023-02-17T00:00:15.919Z,102147.38
2023-02-17T00:02:24.548Z,102141.31
2023-02-17T00:04:43.965Z,102138.69
2023-02-17T00:06:50.089Z,102150.06
2023-02-17T00:09:04.573Z,102138.78
2023-02-17T00:11:19.338Z,102133.53
2023-02-17T00:13:30.249Z,102140.53
2023-02-17T00:15:37.043Z,102139.72
2023-02-17T00:17:42.214Z,102146.72
2023-02-17T00:19:49.152Z,102147.59
2023-02-17T00:21:57.719Z,102146.78
2023-02-17T00:24:12.801Z,102151.09
2023-02-17T00:26:23.435Z,102142.44
2023-02-17T00:28:28.899Z,102139.75
2023-02-17T00:30:37.993Z,102135.44
2023-02-17T00:32:43.117Z,102135.50
2023-02-17T00:34:53.175Z,102130.31
2023-02-17T00:37:01.907Z,102126.84
2023-02-17T00:39:11.727Z,102134.69
2023-02-17T00:41:20.474Z,102132.09
2023-02-17T00:43:25.483Z,102134.78
2023-02-17T00:45:33.639Z,102126.03
2023-02-17T00:47:41.004Z,102127.78
2023-02-17T00:49:48.581Z,102128.72
2023-02-17T00:51:58.571Z,102131.28
2023-02-17T00:54:04.318Z,102123.47
2023-02-17T00:56:13.394Z,102120.81
2023-02-17T00:58:28.319Z,102127.84
2023-02-17T01:00:33.944Z,102119.97
2023-02-17T01:02:40.913Z,102113.00
2023-02-17T01:04:47.321Z,102128.72
2023-02-17T01:06:53.020Z,102131.31
2023-02-17T01:08:58.750Z,102130.47
2023-02-17T01:11:08.326Z,102132.25
2023-02-17T01:13:26.953Z,102140.09
2023-02-17T01:18:51.618Z,102154.91
2023-02-17T01:21:00.174Z,102141.00
2023-02-17T01:23:26.794Z,102142.75
2023-02-17T01:26:29.343Z,102142.75
2023-02-17T01:28:51.638Z,102131.38
2023-02-17T01:30:58.985Z,102127.94
2023-02-17T01:33:06.038Z,102109.63
2023-02-17T01:35:12.329Z,102103.53
2023-02-17T01:37:17.719Z,102110.47
2023-02-17T01:39:25.896Z,102113.09
2023-02-17T01:41:37.076Z,102116.56
2023-02-17T01:44:02.425Z,102106.94
2023-02-17T01:46:13.743Z,102104.31
2023-02-17T01:48:21.643Z,102101.69
2023-02-17T01:50:33.124Z,102115.69
2023-02-17T01:56:12.449Z,102099.09
2023-02-17T02:01:48.368Z,102100.00
2023-02-17T02:06:56.659Z,102094.81
2023-02-17T02:09:30.410Z,102093.09
2023-02-17T02:11:38.451Z,102074.78
2023-02-17T02:13:47.649Z,102073.00
2023-02-17T02:16:03.024Z,102071.28
2023-02-17T02:18:31.512Z,102071.31
2023-02-17T02:21:01.892Z,102075.69
2023-02-17T02:23:38.022Z,102080.03
2023-02-17T02:26:13.891Z,102069.59
2023-02-17T02:28:37.965Z,102066.09
2023-02-17T02:31:25.427Z,102066.09
2023-02-17T02:33:47.831Z,102069.59
2023-02-17T02:36:00.689Z,102066.09
2023-02-17T02:38:10.198Z,102063.44
2023-02-17T02:40:27.877Z,102059.97
2023-02-17T02:42:33.820Z,102062.59
2023-02-17T02:44:43.337Z,102054.72
2023-02-17T02:46:58.977Z,102059.94
2023-02-17T02:49:08.364Z,102064.25
2023-02-17T02:51:44.964Z,102052.03
2023-02-17T02:54:18.601Z,102046.81
2023-02-17T02:56:59.844Z,102046.72
2023-02-17T02:59:50.300Z,102051.97
2023-02-17T03:02:26.205Z,102044.06
2023-02-17T03:04:57.788Z,102029.19
2023-02-17T03:07:15.239Z,102022.25
2023-02-17T03:09:25.844Z,102021.34
2023-02-17T03:11:35.171Z,102003.88
2023-02-17T03:13:42.823Z,101999.44
2023-02-17T03:15:56.707Z,102003.78
2023-02-17T03:18:04.932Z,102002.91
2023-02-17T03:20:20.319Z,102017.72
2023-02-17T03:22:31.279Z,102009.84
2023-02-17T03:24:50.429Z,102002.88
2023-02-17T03:27:02.165Z,101996.81
2023-02-17T03:29:14.850Z,102008.88
2023-02-17T03:31:26.021Z,102001.91
2023-02-17T03:33:48.559Z,101994.91
2023-02-17T03:36:05.221Z,101994.91
2023-02-17T03:38:20.008Z,102003.53
2023-02-17T03:40:28.224Z,102007.00
2023-02-17T03:42:47.629Z,102010.44
2023-02-17T03:45:08.640Z,102008.75
2023-02-17T03:47:16.601Z,102016.50
2023-02-17T03:49:38.749Z,102009.56
2023-02-17T03:52:05.052Z,102014.69
2023-02-17T03:54:46.464Z,102007.69
2023-02-17T03:57:04.026Z,102018.13
2023-02-17T03:59:17.228Z,102017.25
2023-02-17T04:01:22.234Z,102008.50
2023-02-17T04:03:27.284Z,102015.56
2023-02-17T04:05:32.527Z,102015.56
2023-02-17T04:07:40.796Z,102014.66
2023-02-17T04:10:03.892Z,102011.22
2023-02-17T04:12:41.276Z,102011.97
2023-02-17T04:14:54.270Z,102018.13
2023-02-17T04:17:00.974Z,102025.97
2023-02-17T04:19:21.207Z,102019.84
2023-02-17T04:21:32.702Z,102021.53
2023-02-17T04:23:57.918Z,102010.22
2023-02-17T04:26:27.098Z,102004.16
2023-02-17T04:28:40.030Z,102012.78
2023-02-17T04:30:48.009Z,102006.69
2023-02-17T04:32:58.184Z,102004.06
2023-02-17T04:35:03.158Z,102003.16
2023-02-17T04:37:11.350Z,102009.25
2023-02-17T04:39:21.780Z,102003.13
2023-02-17T04:41:29.291Z,101992.63
2023-02-17T04:43:35.231Z,101975.19
2023-02-17T04:45:41.084Z,101979.53
2023-02-17T04:47:46.217Z,101982.09
2023-02-17T04:49:53.638Z,101989.94
2023-02-17T04:52:06.104Z,101982.09
2023-02-17T04:54:11.120Z,101991.66
2023-02-17T04:56:30.587Z,102005.63
2023-02-17T04:58:38.403Z,102015.19
2023-02-17T05:00:49.740Z,102019.53
2023-02-17T05:02:58.553Z,102030.91
2023-02-17T05:05:04.332Z,102008.25
2023-02-17T05:07:30.952Z,102017.81
2023-02-17T05:09:37.158Z,102004.72
2023-02-17T05:11:57.279Z,102011.72
2023-02-17T05:14:03.566Z,102007.28
2023-02-17T05:16:09.609Z,102007.34
2023-02-17T05:18:15.508Z,101995.13
2023-02-17T05:20:22.000Z,101999.53
2023-02-17T05:22:30.582Z,102012.56
2023-02-17T05:24:38.569Z,102001.19
2023-02-17T05:26:49.808Z,101985.50
2023-02-17T05:28:59.140Z,101981.13
2023-02-17T05:31:08.567Z,101980.22
2023-02-17T05:33:26.695Z,101970.63
2023-02-17T05:35:40.915Z,101972.34
2023-02-17T05:37:46.708Z,101972.34
2023-02-17T05:39:52.312Z,101958.44
2023-02-17T05:42:06.944Z,101949.78
2023-02-17T05:44:15.196Z,101948.81
2023-02-17T05:46:24.753Z,101944.44
2023-02-17T05:48:39.965Z,101947.91
2023-02-17T05:50:52.394Z,101948.75
2023-02-17T05:52:59.005Z,101941.75
2023-02-17T05:55:05.089Z,101947.84
2023-02-17T05:57:13.218Z,101945.19
2023-02-17T05:59:36.793Z,101944.31
2023-02-17T06:01:55.573Z,101942.53
2023-02-17T06:04:04.093Z,101945.06
2023-02-17T06:06:26.903Z,101955.53
2023-02-17T06:16:17.196Z,101945.78
2023-02-17T06:19:14.843Z,101947.44
2023-02-17T06:21:21.113Z,101944.75
2023-02-17T06:24:32.182Z,101949.09
2023-02-17T06:26:37.945Z,101948.22
2023-02-17T06:28:42.899Z,101950.00
2023-02-17T06:31:45.326Z,101940.41
2023-02-17T06:34:35.775Z,101942.13
2023-02-17T06:37:23.299Z,101942.97
2023-02-17T06:40:02.190Z,101936.81
2023-02-17T06:42:31.867Z,101931.63
2023-02-17T06:44:55.816Z,101937.63
2023-02-17T06:47:27.252Z,101934.16
2023-02-17T06:49:49.110Z,101927.19
2023-02-17T06:51:54.070Z,101938.47
2023-02-17T06:54:25.142Z,101942.00
2023-02-17T06:56:37.416Z,101941.03
2023-02-17T06:59:19.758Z,101934.00
2023-02-17T07:01:54.578Z,101945.34
2023-02-17T07:04:03.134Z,101934.84
2023-02-17T07:06:11.805Z,101933.94
2023-02-17T07:08:16.769Z,101924.25
2023-02-17T07:10:24.916Z,101934.84
2023-02-17T07:12:31.927Z,101946.28
2023-02-17T07:14:41.516Z,101946.34
2023-02-17T07:17:17.813Z,101950.75
2023-02-17T07:19:37.588Z,101937.63
2023-02-17T07:21:42.405Z,101961.22
2023-02-17T07:23:51.201Z,101960.41
2023-02-17T07:25:56.795Z,101962.13
2023-02-17T07:28:03.129Z,101947.38
2023-02-17T07:30:12.077Z,101928.28
2023-02-17T07:32:17.046Z,101944.03
2023-02-17T07:34:22.345Z,101951.03
2023-02-17T07:36:32.281Z,101954.63
2023-02-17T07:38:37.434Z,101952.91
2023-02-17T07:40:42.748Z,101938.91
2023-02-17T07:43:01.009Z,101937.13
2023-02-17T07:45:07.364Z,101936.25
2023-02-17T07:47:12.361Z,101939.69
2023-02-17T07:49:17.996Z,101946.69
2023-02-17T07:51:24.725Z,101927.50
2023-02-17T07:53:32.306Z,101940.59
2023-02-17T07:55:37.399Z,101942.38
2023-02-17T07:57:42.471Z,101971.16
2023-02-17T07:59:49.920Z,101963.28
2023-02-17T08:01:54.939Z,101963.34
2023-02-17T08:04:00.630Z,101967.66
2023-02-17T08:06:06.697Z,101952.00
2023-02-17T08:08:24.114Z,101987.72
2023-02-17T08:10:44.387Z,101978.97
2023-02-17T08:13:02.106Z,101997.31
2023-02-17T08:15:08.030Z,101995.53
2023-02-17T08:17:14.465Z,101991.97
2023-02-17T08:19:19.936Z,101980.59
2023-02-17T08:21:25.117Z,101982.38
2023-02-17T08:23:30.581Z,101991.94
2023-02-17T08:25:39.767Z,101985.84
2023-02-17T08:27:48.750Z,101980.56
2023-02-17T08:29:55.593Z,101984.06
2023-02-17T08:32:00.903Z,101977.16
2023-02-17T08:34:08.743Z,101998.91
2023-02-17T08:36:16.010Z,101977.91
2023-02-17T08:38:20.932Z,101991.84
2023-02-17T08:40:27.185Z,102010.16
2023-02-17T08:42:38.271Z,102001.38
2023-02-17T08:44:43.058Z,101985.63
2023-02-17T08:46:50.118Z,101996.09
2023-02-17T08:48:56.570Z,101995.13
2023-02-17T08:51:01.593Z,101994.16
2023-02-17T08:53:06.676Z,102011.66
2023-02-17T08:55:11.858Z,101994.16
2023-02-17T08:57:16.831Z,101993.25
2023-02-17T08:59:24.559Z,101999.41
2023-02-17T09:01:29.624Z,101980.19
2023-02-17T09:03:37.962Z,101992.50
2023-02-17T09:05:43.169Z,101997.75
2023-02-17T09:07:49.693Z,101995.13
2023-02-17T09:09:54.643Z,101977.69
2023-02-17T09:12:01.039Z,102004.75
2023-02-17T09:14:06.187Z,102003.84
2023-02-17T09:16:14.987Z,102029.13
2023-02-17T09:18:20.345Z,102016.81
2023-02-17T09:20:25.660Z,102024.72
2023-02-17T09:22:32.487Z,102038.63
2023-02-17T09:24:38.903Z,102026.38
2023-02-17T09:26:44.765Z,102021.13
2023-02-17T09:28:53.295Z,102021.19
2023-02-17T09:30:58.513Z,102001.88
2023-02-17T09:33:17.673Z,102005.38
2023-02-17T09:35:22.710Z,102001.84
2023-02-17T09:37:27.835Z,101990.41
2023-02-17T09:39:32.832Z,102000.00
2023-02-17T09:41:42.328Z,102010.44
2023-02-17T09:43:51.584Z,102027.81
2023-02-17T09:46:02.750Z,102012.78
2023-02-17T09:48:11.945Z,102030.97
2023-02-17T09:50:23.667Z,102030.94
2023-02-17T09:52:34.016Z,102024.66
2023-02-17T09:54:50.338Z,102033.41
2023-02-17T09:56:57.709Z,102028.91
2023-02-17T09:59:07.429Z,102032.31
2023-02-17T10:01:19.610Z,102036.72
2023-02-17T10:03:31.232Z,102027.19
2023-02-17T10:05:51.660Z,102050.78
2023-02-17T10:08:01.689Z,102053.41
2023-02-17T10:10:11.175Z,102063.84
2023-02-17T10:12:20.736Z,102066.53
2023-02-17T10:14:31.829Z,102059.63
2023-02-17T10:16:44.632Z,102069.28
2023-02-17T10:18:56.620Z,102057.81
2023-02-17T10:21:07.965Z,102048.16
2023-02-17T10:23:19.408Z,102042.03
2023-02-17T10:25:36.685Z,102043.72
2023-02-17T10:27:48.520Z,102049.72
2023-02-17T10:30:07.709Z,102052.34
2023-02-17T10:32:25.303Z,102050.50
2023-02-17T10:34:41.709Z,102064.44
2023-02-17T10:36:56.847Z,102081.09
2023-02-17T10:39:09.442Z,102068.91
2023-02-17T10:41:19.301Z,102068.91
2023-02-17T10:43:30.278Z,102082.88
2023-02-17T10:45:41.017Z,102079.59
2023-02-17T10:47:46.478Z,102082.16
2023-02-17T10:49:54.636Z,102072.63
2023-02-17T10:52:04.974Z,102090.13
2023-02-17T10:54:19.121Z,102084.88
2023-02-17T10:56:28.980Z,102090.94
2023-02-17T10:58:39.487Z,102090.97
2023-02-17T11:00:48.375Z,102091.03
2023-02-17T11:02:54.605Z,102098.91
2023-02-17T11:05:00.109Z,102097.22
2023-02-17T11:07:18.468Z,102106.06
2023-02-17T11:09:28.948Z,102091.22
2023-02-17T11:11:37.320Z,102089.50
2023-02-17T11:13:46.734Z,102068.44
2023-02-17T11:15:51.751Z,102071.06
2023-02-17T11:17:57.652Z,102082.34
2023-02-17T11:20:04.946Z,102080.53
2023-02-17T11:22:36.230Z,102102.44
2023-02-17T11:24:41.790Z,102084.06
2023-02-17T11:26:46.980Z,102078.81
2023-02-17T11:28:53.902Z,102084.13
2023-02-17T11:31:02.870Z,102081.56
2023-02-17T11:33:16.552Z,102099.03
2023-02-17T11:35:27.880Z,102106.00
2023-02-17T11:37:37.045Z,102105.06
2023-02-17T11:39:47.413Z,102104.16
2023-02-17T11:41:52.843Z,102102.50
2023-02-17T11:44:00.192Z,102106.84
2023-02-17T11:46:16.455Z,102127.81
2023-02-17T11:48:42.114Z,102127.88
2023-02-17T11:50:56.910Z,102136.59
2023-02-17T11:53:18.419Z,102119.00
2023-02-17T11:55:26.658Z,102124.09
2023-02-17T11:57:45.463Z,102128.31
2023-02-17T12:00:06.009Z,102123.03
2023-02-17T12:02:28.794Z,102116.94
2023-02-17T12:04:34.966Z,102129.00
2023-02-17T12:06:50.018Z,102126.38
2023-02-17T12:09:15.777Z,102123.72
2023-02-17T12:11:31.952Z,102130.72
2023-02-17T12:13:50.499Z,102128.97
2023-02-17T12:16:11.155Z,102127.00
2023-02-17T12:18:32.835Z,102150.53
2023-02-17T12:20:49.984Z,102160.13
2023-02-17T12:23:09.729Z,102160.06
2023-02-17T12:25:31.156Z,102145.19
2023-02-17T12:27:49.608Z,102166.34
2023-02-17T12:30:07.916Z,102163.59
2023-02-17T12:32:26.362Z,102149.69
2023-02-17T12:34:37.115Z,102167.13
2023-02-17T12:36:49.236Z,102163.59
2023-02-17T12:38:59.602Z,102174.16
2023-02-17T12:41:13.562Z,102174.25
2023-02-17T12:43:33.963Z,102173.38
2023-02-17T12:45:48.141Z,102152.50
2023-02-17T12:47:57.597Z,102177.91
2023-02-17T12:50:09.408Z,102176.28
2023-02-17T12:52:19.585Z,102185.16
2023-02-17T12:54:33.487Z,102186.13
2023-02-17T12:56:55.341Z,102175.69
2023-02-17T12:59:07.308Z,102180.13
2023-02-17T13:01:22.185Z,102167.00
2023-02-17T13:03:27.840Z,102180.16
2023-02-17T13:05:38.679Z,102174.09
2023-02-17T13:07:50.667Z,102180.25
2023-02-17T13:09:58.607Z,102190.59
2023-02-17T13:12:44.512Z,102197.47
2023-02-17T13:14:54.951Z,102191.25
2023-02-17T13:17:02.721Z,102186.81
2023-02-17T13:19:11.396Z,102172.81
2023-02-17T13:21:35.327Z,102170.19
2023-02-17T13:23:42.601Z,102187.72
2023-02-17T13:25:49.045Z,102185.94
2023-02-17T13:27:58.039Z,102176.09
2023-02-17T13:30:03.979Z,102192.72
2023-02-17T13:32:11.380Z,102187.38
2023-02-17T13:34:31.234Z,102187.38
2023-02-17T13:36:40.964Z,102195.25
2023-02-17T13:38:57.494Z,102201.44
2023-02-17T13:41:04.931Z,102200.25
2023-02-17T13:43:19.336Z,102193.16
2023-02-17T13:45:29.027Z,102193.41
2023-02-17T13:47:39.503Z,102182.13
2023-02-17T13:49:50.151Z,102174.09
2023-02-17T13:51:55.004Z,102169.78
2023-02-17T13:54:00.239Z,102170.75
2023-02-17T13:56:08.155Z,102187.31
2023-02-17T13:58:17.057Z,102194.28
2023-02-17T14:00:26.740Z,102194.34
2023-02-17T14:02:36.412Z,102170.69
2023-02-17T14:04:44.864Z,102158.56
2023-02-17T14:06:52.874Z,102161.28
2023-02-17T14:08:57.977Z,102168.22
2023-02-17T14:11:09.261Z,102167.50
2023-02-17T14:13:17.514Z,102177.78
2023-02-17T14:15:25.881Z,102185.75
2023-02-17T14:17:33.688Z,102198.81
2023-02-17T14:19:46.747Z,102202.44
2023-02-17T14:22:04.160Z,102180.47
2023-02-17T14:24:11.805Z,102193.50
2023-02-17T14:26:29.356Z,102198.66
2023-02-17T14:28:37.002Z,102200.31
2023-02-17T14:30:42.761Z,102207.16
2023-02-17T14:32:49.143Z,102194.94
2023-02-17T14:34:54.070Z,102222.16
2023-02-17T14:37:09.686Z,102189.00
2023-02-17T14:39:18.990Z,102186.47
2023-02-17T14:41:23.954Z,102177.56
2023-02-17T14:43:28.866Z,102185.41
2023-02-17T14:45:36.620Z,102200.06
2023-02-17T14:47:41.688Z,102200.03
2023-02-17T14:49:49.028Z,102201.03
2023-02-17T14:51:53.884Z,102219.38
2023-02-17T14:53:59.016Z,102223.75
2023-02-17T14:56:09.578Z,102227.47
2023-02-17T14:58:22.074Z,102222.84
2023-02-17T15:00:27.899Z,102215.94
2023-02-17T15:02:37.582Z,102209.78
2023-02-17T15:04:45.682Z,102213.97
2023-02-17T15:06:54.766Z,102204.31
2023-02-17T15:09:00.218Z,102205.94
2023-02-17T15:11:05.667Z,102208.47
2023-02-17T15:13:16.293Z,102213.59
2023-02-17T15:15:21.858Z,102219.81
2023-02-17T15:17:26.737Z,102226.81
2023-02-17T15:19:34.674Z,102245.13
2023-02-17T15:21:41.969Z,102247.75
2023-02-17T15:23:46.886Z,102243.59
2023-02-17T15:25:53.784Z,102234.88
2023-02-17T15:27:58.830Z,102234.91
2023-02-17T15:30:03.856Z,102228.03
2023-02-17T15:32:19.098Z,102235.09
2023-02-17T15:34:27.901Z,102245.72
2023-02-17T15:36:37.136Z,102249.28
2023-02-17T15:38:42.084Z,102250.16
2023-02-17T15:40:47.911Z,102242.31
2023-02-17T15:42:56.673Z,102251.19
2023-02-17T15:45:01.963Z,102246.84
2023-02-17T15:47:07.300Z,102252.16
2023-02-17T15:49:14.422Z,102253.22
2023-02-17T15:51:23.655Z,102258.41
2023-02-17T15:53:33.405Z,102263.00
2023-02-17T15:55:39.297Z,102281.41
2023-02-17T15:57:49.668Z,102277.91
2023-02-17T15:59:56.151Z,102282.31
2023-02-17T16:02:02.503Z,102289.41
2023-02-17T16:04:07.513Z,102292.06
2023-02-17T16:06:12.482Z,102293.03
2023-02-17T16:08:17.295Z,102292.97
2023-02-17T16:10:27.359Z,102284.28
2023-02-17T16:12:32.450Z,102290.50
2023-02-17T16:14:44.258Z,102294.84
2023-02-17T16:16:51.604Z,102303.69
2023-02-17T16:18:59.123Z,102307.25
2023-02-17T16:21:04.056Z,102290.72
2023-02-17T16:23:46.967Z,102298.59
2023-02-17T16:25:59.291Z,102291.59
2023-02-17T16:28:04.422Z,102287.28
2023-02-17T16:30:24.826Z,102297.00
2023-02-17T16:32:30.756Z,102304.84
2023-02-17T16:34:36.484Z,102317.16
2023-02-17T16:36:41.793Z,102314.47
2023-02-17T16:38:48.212Z,102316.34
2023-02-17T16:40:56.447Z,102324.22
2023-02-17T16:43:01.564Z,102324.25
2023-02-17T16:45:07.402Z,102331.31
2023-02-17T16:47:22.660Z,102312.09
2023-02-17T16:49:32.769Z,102332.25
2023-02-17T16:51:37.658Z,102322.66
2023-02-17T16:53:42.905Z,102318.31
2023-02-17T16:55:49.112Z,102323.50
2023-02-17T16:57:56.748Z,102324.38
2023-02-17T17:00:01.938Z,102324.38
2023-02-17T17:02:08.139Z,102321.75
2023-02-17T17:04:12.979Z,102337.47
2023-02-17T17:06:25.386Z,102342.75
2023-02-17T17:08:30.290Z,102336.66
2023-02-17T17:10:40.158Z,102348.06
2023-02-17T17:12:46.511Z,102343.66
2023-02-17T17:14:54.149Z,102343.69
2023-02-17T17:17:03.796Z,102353.28
2023-02-17T17:19:09.136Z,102344.53
2023-02-17T17:21:15.650Z,102342.88
2023-02-17T17:23:20.612Z,102343.72
2023-02-17T17:25:25.682Z,102353.34
2023-02-17T17:27:30.516Z,102350.75
2023-02-17T17:29:36.852Z,102366.50
2023-02-17T17:31:45.654Z,102371.78
2023-02-17T17:33:51.817Z,102379.66
2023-02-17T17:35:56.771Z,102387.53
2023-02-17T17:38:01.863Z,102389.25
2023-02-17T17:40:07.458Z,102388.41
2023-02-17T17:42:13.195Z,102387.56
2023-02-17T17:44:22.065Z,102386.75
2023-02-17T17:46:33.901Z,102391.97
2023-02-17T17:48:45.804Z,102396.38
2023-02-17T17:50:52.310Z,102401.63
2023-02-17T17:52:59.596Z,102411.22
2023-02-17T17:55:04.951Z,102417.38
2023-02-17T17:57:09.980Z,102409.50
2023-02-17T17:59:16.289Z,102407.75
2023-02-17T18:01:24.582Z,102406.00
2023-02-17T18:03:29.724Z,102397.38
2023-02-17T18:05:39.225Z,102406.94
2023-02-17T18:07:47.234Z,102408.75
2023-02-17T18:09:52.335Z,102407.03
2023-02-17T18:11:58.706Z,102414.00
2023-02-17T18:14:08.796Z,102415.69
2023-02-17T18:16:15.809Z,102429.69
2023-02-17T18:18:21.472Z,102422.72
2023-02-17T18:20:26.700Z,102430.53
2023-02-17T18:22:34.780Z,102439.28
2023-02-17T18:24:43.154Z,102425.34
2023-02-17T18:26:47.950Z,102431.44
2023-02-17T18:28:52.818Z,102428.81
2023-02-17T18:30:59.418Z,102429.72
2023-02-17T18:33:04.669Z,102430.50
2023-02-17T18:35:10.457Z,102431.38
2023-02-17T18:37:17.440Z,102434.03
2023-02-17T18:39:24.886Z,102430.50
2023-02-17T18:41:31.419Z,102434.00
2023-02-17T18:43:36.976Z,102435.75
2023-02-17T18:45:41.864Z,102438.41
2023-02-17T18:47:53.661Z,102440.19
2023-02-17T18:49:58.785Z,102462.00
2023-02-17T18:52:04.065Z,102470.78
2023-02-17T18:54:14.200Z,102484.84
2023-02-17T18:56:23.864Z,102488.38
2023-02-17T18:58:30.058Z,102495.34
2023-02-17T19:00:35.045Z,102506.63
2023-02-17T19:02:40.016Z,102504.91
2023-02-17T19:04:47.479Z,102475.22
2023-02-17T19:06:53.074Z,102507.53
2023-02-17T19:09:01.303Z,102505.72
2023-02-17T19:11:08.418Z,102511.81
2023-02-17T19:13:19.613Z,102499.47
2023-02-17T19:15:24.714Z,102486.41
2023-02-17T19:17:29.581Z,102491.66
2023-02-17T19:19:34.642Z,102502.09
2023-02-17T19:21:39.621Z,102498.56
2023-02-17T19:23:45.523Z,102494.22
2023-02-17T19:25:50.612Z,102502.94
2023-02-17T19:27:55.942Z,102505.59
2023-02-17T19:30:03.721Z,102505.59
2023-02-17T19:32:09.200Z,102515.22
2023-02-17T19:34:16.944Z,102511.75
2023-02-17T19:36:23.494Z,102517.03
2023-02-17T19:38:29.781Z,102521.41
2023-02-17T19:40:36.482Z,102529.31
2023-02-17T19:42:42.092Z,102536.31
2023-02-17T19:44:47.687Z,102540.69
2023-02-17T19:46:56.555Z,102538.94
2023-02-17T19:49:01.494Z,102541.56
2023-02-17T19:51:09.206Z,102537.16
2023-02-17T19:53:14.085Z,102547.69
2023-02-17T19:55:21.927Z,102552.03
2023-02-17T19:57:26.750Z,102535.44
2023-02-17T19:59:31.411Z,102534.56
2023-02-17T20:01:37.254Z,102537.22
2023-02-17T20:03:45.398Z,102537.19
2023-02-17T20:05:50.841Z,102530.22
2023-02-17T20:07:57.517Z,102535.50
2023-02-17T20:10:02.315Z,102525.91
2023-02-17T20:12:07.535Z,102544.28
2023-02-17T20:14:12.465Z,102545.16
2023-02-17T20:16:19.628Z,102536.38
2023-02-17T20:18:24.478Z,102534.63
2023-02-17T20:20:32.058Z,102541.56
2023-02-17T20:22:36.776Z,102541.56
2023-02-17T20:24:42.826Z,102536.28
2023-02-17T20:26:51.399Z,102535.44
2023-02-17T20:28:56.661Z,102538.94
2023-02-17T20:31:04.735Z,102534.56
2023-02-17T20:33:09.897Z,102532.84
2023-02-17T20:35:16.665Z,102540.69
2023-02-17T20:37:24.199Z,102540.75
2023-02-17T20:39:29.570Z,102541.63
2023-02-17T20:41:34.647Z,102541.59
2023-02-17T20:43:41.782Z,102545.19
2023-02-17T20:45:51.467Z,102547.81
2023-02-17T20:47:56.611Z,102553.03
2023-02-17T20:50:09.235Z,102544.28
2023-02-17T20:52:15.393Z,102541.66
2023-02-17T20:54:24.803Z,102537.34
2023-02-17T20:56:36.694Z,102547.88
2023-02-17T20:58:41.801Z,102553.94
2023-02-17T21:00:47.534Z,102553.94
2023-02-17T21:02:53.359Z,102548.72
2023-02-17T21:04:58.915Z,102551.31
2023-02-17T21:07:03.769Z,102549.56
2023-02-17T21:09:11.745Z,102550.44
2023-02-17T21:11:19.245Z,102538.19
2023-02-17T21:13:25.041Z,102542.56
2023-02-17T21:15:31.238Z,102531.16
2023-02-17T21:17:37.293Z,102537.28
2023-02-17T21:19:42.387Z,102539.00
2023-02-17T21:21:47.067Z,102536.44
2023-02-17T21:23:52.490Z,102534.66
2023-02-17T21:25:57.546Z,102533.78
2023-02-17T21:28:05.324Z,102527.69
2023-02-17T21:30:12.475Z,102527.69
2023-02-17T21:32:17.471Z,102527.69
2023-02-17T21:34:22.762Z,102525.97
2023-02-17T21:36:29.299Z,102529.44
2023-02-17T21:38:34.607Z,102524.19
2023-02-17T21:40:39.702Z,102527.69
2023-02-17T21:42:58.348Z,102527.69
2023-02-17T21:45:08.889Z,102528.53
2023-02-17T21:47:15.476Z,102529.41
2023-02-17T21:49:23.587Z,102528.53
2023-02-17T21:51:28.503Z,102529.41
2023-02-17T21:53:33.228Z,102527.63
2023-02-17T21:55:38.097Z,102534.59
2023-02-17T21:57:42.902Z,102532.91
2023-02-17T21:59:47.898Z,102532.03
2023-02-17T22:01:56.659Z,102533.78
2023-02-17T22:04:02.687Z,102531.19
2023-02-17T22:06:16.768Z,102528.63
2023-02-17T22:08:24.053Z,102523.38
2023-02-17T22:10:28.989Z,102528.63
2023-02-17T22:12:33.889Z,102527.75
2023-02-17T22:14:40.871Z,102524.25
2023-02-17T22:16:47.120Z,102522.50
2023-02-17T22:18:55.654Z,102520.75
2023-02-17T22:21:00.665Z,102522.53
2023-02-17T22:23:05.592Z,102518.16
2023-02-17T22:25:10.858Z,102517.28
2023-02-17T22:27:18.448Z,102518.13
2023-02-17T22:29:23.656Z,102514.63
2023-02-17T22:31:31.130Z,102512.88
2023-02-17T22:33:37.424Z,102514.66
2023-02-17T22:35:45.029Z,102515.53
2023-02-17T22:37:49.884Z,102513.78
2023-02-17T22:39:56.837Z,102507.66
2023-02-17T22:42:04.093Z,102505.91
2023-02-17T22:44:10.541Z,102510.31
2023-02-17T22:46:18.488Z,102505.97
2023-02-17T22:48:23.475Z,102514.69
2023-02-17T22:50:28.434Z,102515.59
2023-02-17T22:52:37.123Z,102513.84
2023-02-17T22:54:41.850Z,102514.75
2023-02-17T22:56:46.834Z,102503.38
2023-02-17T22:58:55.966Z,102507.78
2023-02-17T23:01:06.703Z,102507.78
2023-02-17T23:03:11.491Z,102508.59
2023-02-17T23:05:16.368Z,102504.25
2023-02-17T23:07:21.365Z,102514.75
2023-02-17T23:09:28.972Z,102512.13
2023-02-17T23:11:47.929Z,102506.84
2023-02-17T23:13:52.796Z,102503.38
2023-02-17T23:15:57.638Z,102491.16
2023-02-17T23:18:02.653Z,102494.66
2023-02-17T23:20:08.228Z,102488.53
2023-02-17T23:22:16.367Z,102489.47
2023-02-17T23:24:22.514Z,102496.47
2023-02-17T23:26:29.944Z,102482.56
2023-02-17T23:28:37.622Z,102475.56
2023-02-17T23:30:43.757Z,102461.66
2023-02-17T23:32:48.994Z,102471.31
2023-02-17T23:34:53.954Z,102474.78
2023-02-17T23:36:59.383Z,102466.09
2023-02-17T23:39:04.509Z,102464.31
2023-02-17T23:41:13.267Z,102465.19
2023-02-17T23:43:22.570Z,102455.59
2023-02-17T23:45:27.714Z,102452.97
2023-02-17T23:47:32.744Z,102456.47
2023-02-17T23:49:40.379Z,102450.34
2023-02-17T23:51:46.882Z,102447.72
2023-02-17T23:53:52.762Z,102460.88
2023-02-17T23:56:05.763Z,102452.97
2023-02-17T23:58:10.702Z,102456.47
